sensor_id;sensor_type;location;lat;lon;timestamp;P1;durP1;ratioP1;P2;durP2;ratioP2
12788;SDS011;6458;42.710;23.192;2023-07-13T00:00:36;6.60;;;5.30;;
12788;SDS011;6458;42.710;23.192;2023-07-13T00:03:03;6.47;;;5.17;;
12788;SDS011;6458;42.710;23.192;2023-07-13T00:05:29;6.13;;;5.07;;
12788;SDS011;6458;42.710;23.192;2023-07-13T00:07:57;6.33;;;5.50;;
12788;SDS011;6458;42.710;23.192;2023-07-13T00:10:23;7.93;;;5.33;;
12788;SDS011;6458;42.710;23.192;2023-07-13T00:12:51;6.03;;;5.30;;
12788;SDS011;6458;42.710;23.192;2023-07-13T00:15:20;6.27;;;5.70;;
12788;SDS011;6458;42.710;23.192;2023-07-13T00:17:49;5.47;;;4.97;;
12788;SDS011;6458;42.710;23.192;2023-07-13T00:20:16;6.77;;;6.10;;
12788;SDS011;6458;42.710;23.192;2023-07-13T00:22:43;6.37;;;5.77;;
12788;SDS011;6458;42.710;23.192;2023-07-13T00:25:10;6.53;;;5.87;;
12788;SDS011;6458;42.710;23.192;2023-07-13T00:27:36;6.13;;;5.53;;
12788;SDS011;6458;42.710;23.192;2023-07-13T00:30:03;7.07;;;5.47;;
12788;SDS011;6458;42.710;23.192;2023-07-13T00:32:30;6.17;;;5.67;;
12788;SDS011;6458;42.710;23.192;2023-07-13T00:34:58;5.63;;;5.23;;
12788;SDS011;6458;42.710;23.192;2023-07-13T00:37:25;5.40;;;5.00;;
12788;SDS011;6458;42.710;23.192;2023-07-13T00:39:52;5.47;;;5.17;;
12788;SDS011;6458;42.710;23.192;2023-07-13T00:42:19;6.10;;;5.50;;
12788;SDS011;6458;42.710;23.192;2023-07-13T00:47:36;4.80;;;4.40;;
12788;SDS011;6458;42.710;23.192;2023-07-13T00:50:05;5.20;;;4.70;;
12788;SDS011;6458;42.710;23.192;2023-07-13T00:52:33;6.83;;;5.23;;
12788;SDS011;6458;42.710;23.192;2023-07-13T00:54:59;6.00;;;5.40;;
12788;SDS011;6458;42.710;23.192;2023-07-13T00:57:26;9.53;;;5.97;;
12788;SDS011;6458;42.710;23.192;2023-07-13T00:59:54;7.60;;;7.00;;
12788;SDS011;6458;42.710;23.192;2023-07-13T01:02:22;9.70;;;6.93;;
12788;SDS011;6458;42.710;23.192;2023-07-13T01:04:48;8.47;;;6.90;;
12788;SDS011;6458;42.710;23.192;2023-07-13T01:07:16;8.40;;;7.43;;
12788;SDS011;6458;42.710;23.192;2023-07-13T01:09:44;8.53;;;7.57;;
12788;SDS011;6458;42.710;23.192;2023-07-13T01:12:11;6.70;;;6.20;;
12788;SDS011;6458;42.710;23.192;2023-07-13T01:14:38;7.73;;;6.90;;
12788;SDS011;6458;42.710;23.192;2023-07-13T01:17:07;8.83;;;8.03;;
12788;SDS011;6458;42.710;23.192;2023-07-13T01:19:35;8.53;;;7.73;;
12788;SDS011;6458;42.710;23.192;2023-07-13T01:22:04;8.37;;;7.67;;
12788;SDS011;6458;42.710;23.192;2023-07-13T01:24:34;8.73;;;7.93;;
12788;SDS011;6458;42.710;23.192;2023-07-13T01:27:01;7.90;;;7.30;;
12788;SDS011;6458;42.710;23.192;2023-07-13T01:29:29;8.67;;;7.40;;
12788;SDS011;6458;42.710;23.192;2023-07-13T01:31:56;7.07;;;6.53;;
12788;SDS011;6458;42.710;23.192;2023-07-13T01:34:23;8.33;;;6.20;;
12788;SDS011;6458;42.710;23.192;2023-07-13T01:36:49;6.40;;;5.80;;
12788;SDS011;6458;42.710;23.192;2023-07-13T01:39:20;6.90;;;6.30;;
12788;SDS011;6458;42.710;23.192;2023-07-13T01:41:47;6.80;;;6.03;;
12788;SDS011;6458;42.710;23.192;2023-07-13T01:44:13;6.60;;;6.00;;
12788;SDS011;6458;42.710;23.192;2023-07-13T01:46:40;8.03;;;6.67;;
12788;SDS011;6458;42.710;23.192;2023-07-13T01:49:07;6.63;;;6.10;;
12788;SDS011;6458;42.710;23.192;2023-07-13T01:51:33;6.97;;;6.30;;
12788;SDS011;6458;42.710;23.192;2023-07-13T01:54:00;7.70;;;7.10;;
12788;SDS011;6458;42.710;23.192;2023-07-13T01:56:28;6.97;;;6.47;;
12788;SDS011;6458;42.710;23.192;2023-07-13T01:58:55;7.20;;;6.50;;
12788;SDS011;6458;42.710;23.192;2023-07-13T02:01:22;7.83;;;7.23;;
12788;SDS011;6458;42.710;23.192;2023-07-13T02:03:48;8.47;;;7.77;;
12788;SDS011;6458;42.710;23.192;2023-07-13T02:06:15;12.10;;;7.80;;
12788;SDS011;6458;42.710;23.192;2023-07-13T02:08:42;8.97;;;8.17;;
12788;SDS011;6458;42.710;23.192;2023-07-13T02:11:08;9.03;;;8.17;;
12788;SDS011;6458;42.710;23.192;2023-07-13T02:13:37;9.23;;;8.47;;
12788;SDS011;6458;42.710;23.192;2023-07-13T02:16:03;8.73;;;7.83;;
12788;SDS011;6458;42.710;23.192;2023-07-13T02:18:31;9.30;;;8.40;;
12788;SDS011;6458;42.710;23.192;2023-07-13T02:20:58;8.43;;;7.83;;
12788;SDS011;6458;42.710;23.192;2023-07-13T02:23:25;10.17;;;8.50;;
12788;SDS011;6458;42.710;23.192;2023-07-13T02:25:54;9.67;;;8.63;;
12788;SDS011;6458;42.710;23.192;2023-07-13T02:28:20;9.90;;;9.00;;
12788;SDS011;6458;42.710;23.192;2023-07-13T02:30:49;9.40;;;8.50;;
12788;SDS011;6458;42.710;23.192;2023-07-13T02:33:15;9.00;;;8.30;;
12788;SDS011;6458;42.710;23.192;2023-07-13T02:35:42;8.90;;;8.10;;
12788;SDS011;6458;42.710;23.192;2023-07-13T02:38:09;10.40;;;8.37;;
12788;SDS011;6458;42.710;23.192;2023-07-13T02:40:36;9.10;;;8.30;;
12788;SDS011;6458;42.710;23.192;2023-07-13T02:43:03;8.33;;;7.70;;
12788;SDS011;6458;42.710;23.192;2023-07-13T02:45:30;9.73;;;8.80;;
12788;SDS011;6458;42.710;23.192;2023-07-13T02:47:58;10.83;;;8.77;;
12788;SDS011;6458;42.710;23.192;2023-07-13T02:50:24;9.87;;;8.87;;
12788;SDS011;6458;42.710;23.192;2023-07-13T02:52:51;9.87;;;8.87;;
12788;SDS011;6458;42.710;23.192;2023-07-13T02:55:18;8.60;;;7.90;;
12788;SDS011;6458;42.710;23.192;2023-07-13T02:57:44;9.93;;;8.27;;
12788;SDS011;6458;42.710;23.192;2023-07-13T03:00:11;8.97;;;8.07;;
12788;SDS011;6458;42.710;23.192;2023-07-13T03:02:38;9.50;;;8.70;;
12788;SDS011;6458;42.710;23.192;2023-07-13T03:05:06;9.57;;;8.53;;
12788;SDS011;6458;42.710;23.192;2023-07-13T03:07:37;9.70;;;8.80;;
12788;SDS011;6458;42.710;23.192;2023-07-13T03:10:04;8.33;;;7.63;;
12788;SDS011;6458;42.710;23.192;2023-07-13T03:12:31;8.90;;;8.20;;
12788;SDS011;6458;42.710;23.192;2023-07-13T03:14:58;9.50;;;8.33;;
12788;SDS011;6458;42.710;23.192;2023-07-13T03:17:25;9.53;;;8.57;;
12788;SDS011;6458;42.710;23.192;2023-07-13T03:19:51;8.80;;;8.00;;
12788;SDS011;6458;42.710;23.192;2023-07-13T03:22:21;9.30;;;8.50;;
12788;SDS011;6458;42.710;23.192;2023-07-13T03:24:49;9.90;;;8.90;;
12788;SDS011;6458;42.710;23.192;2023-07-13T03:27:16;8.77;;;7.87;;
12788;SDS011;6458;42.710;23.192;2023-07-13T03:29:43;9.07;;;8.30;;
12788;SDS011;6458;42.710;23.192;2023-07-13T03:32:10;9.57;;;8.50;;
12788;SDS011;6458;42.710;23.192;2023-07-13T03:34:37;8.87;;;8.17;;
12788;SDS011;6458;42.710;23.192;2023-07-13T03:37:04;8.83;;;8.00;;
12788;SDS011;6458;42.710;23.192;2023-07-13T03:39:32;10.47;;;8.50;;
12788;SDS011;6458;42.710;23.192;2023-07-13T03:41:58;8.33;;;7.63;;
12788;SDS011;6458;42.710;23.192;2023-07-13T03:44:25;8.90;;;7.93;;
12788;SDS011;6458;42.710;23.192;2023-07-13T03:46:52;8.53;;;7.80;;
12788;SDS011;6458;42.710;23.192;2023-07-13T03:49:18;9.70;;;7.63;;
12788;SDS011;6458;42.710;23.192;2023-07-13T03:51:45;7.90;;;7.30;;
12788;SDS011;6458;42.710;23.192;2023-07-13T03:54:12;8.73;;;7.83;;
12788;SDS011;6458;42.710;23.192;2023-07-13T03:56:40;8.10;;;7.30;;
12788;SDS011;6458;42.710;23.192;2023-07-13T03:59:06;8.57;;;7.63;;
12788;SDS011;6458;42.710;23.192;2023-07-13T04:01:33;8.60;;;7.80;;
12788;SDS011;6458;42.710;23.192;2023-07-13T04:03:59;8.50;;;7.63;;
12788;SDS011;6458;42.710;23.192;2023-07-13T04:06:27;8.10;;;7.40;;
12788;SDS011;6458;42.710;23.192;2023-07-13T04:08:55;7.00;;;6.37;;
12788;SDS011;6458;42.710;23.192;2023-07-13T04:11:22;9.57;;;8.10;;
12788;SDS011;6458;42.710;23.192;2023-07-13T04:13:51;7.93;;;7.23;;
12788;SDS011;6458;42.710;23.192;2023-07-13T04:16:18;10.03;;;7.47;;
12788;SDS011;6458;42.710;23.192;2023-07-13T04:18:45;7.30;;;6.70;;
12788;SDS011;6458;42.710;23.192;2023-07-13T04:21:12;7.53;;;6.83;;
12788;SDS011;6458;42.710;23.192;2023-07-13T04:23:39;7.30;;;6.70;;
12788;SDS011;6458;42.710;23.192;2023-07-13T04:26:06;7.45;;;6.75;;
12788;SDS011;6458;42.710;23.192;2023-07-13T04:28:33;8.18;;;6.85;;
12788;SDS011;6458;42.710;23.192;2023-07-13T04:31:01;7.38;;;6.78;;
12788;SDS011;6458;42.710;23.192;2023-07-13T04:33:28;7.88;;;7.15;;
12788;SDS011;6458;42.710;23.192;2023-07-13T04:35:55;10.70;;;6.88;;
12788;SDS011;6458;42.710;23.192;2023-07-13T04:38:23;7.60;;;6.90;;
12788;SDS011;6458;42.710;23.192;2023-07-13T04:40:50;8.15;;;7.43;;
12788;SDS011;6458;42.710;23.192;2023-07-13T04:43:17;7.75;;;7.13;;
12788;SDS011;6458;42.710;23.192;2023-07-13T04:45:43;6.88;;;6.47;;
12788;SDS011;6458;42.710;23.192;2023-07-13T04:48:11;8.40;;;7.65;;
12788;SDS011;6458;42.710;23.192;2023-07-13T04:50:38;7.78;;;7.18;;
12788;SDS011;6458;42.710;23.192;2023-07-13T04:53:05;8.73;;;7.93;;
12788;SDS011;6458;42.710;23.192;2023-07-13T04:55:32;8.15;;;7.35;;
12788;SDS011;6458;42.710;23.192;2023-07-13T04:57:59;8.52;;;7.72;;
12788;SDS011;6458;42.710;23.192;2023-07-13T05:00:26;8.95;;;8.00;;
12788;SDS011;6458;42.710;23.192;2023-07-13T05:02:53;7.97;;;7.22;;
12788;SDS011;6458;42.710;23.192;2023-07-13T05:05:22;7.78;;;7.18;;
12788;SDS011;6458;42.710;23.192;2023-07-13T05:07:48;8.98;;;7.75;;
12788;SDS011;6458;42.710;23.192;2023-07-13T05:10:15;8.48;;;7.65;;
12788;SDS011;6458;42.710;23.192;2023-07-13T05:12:42;7.65;;;7.03;;
12788;SDS011;6458;42.710;23.192;2023-07-13T05:15:09;8.38;;;7.32;;
12788;SDS011;6458;42.710;23.192;2023-07-13T05:17:36;9.38;;;7.10;;
12788;SDS011;6458;42.710;23.192;2023-07-13T05:20:04;8.57;;;7.40;;
12788;SDS011;6458;42.710;23.192;2023-07-13T05:22:32;7.68;;;6.97;;
12788;SDS011;6458;42.710;23.192;2023-07-13T05:25:00;7.68;;;7.07;;
12788;SDS011;6458;42.710;23.192;2023-07-13T05:27:26;7.97;;;7.20;;
12788;SDS011;6458;42.710;23.192;2023-07-13T05:29:53;8.63;;;7.75;;
12788;SDS011;6458;42.710;23.192;2023-07-13T05:32:20;8.40;;;7.50;;
12788;SDS011;6458;42.710;23.192;2023-07-13T05:34:46;8.13;;;7.25;;
12788;SDS011;6458;42.710;23.192;2023-07-13T05:37:13;7.85;;;7.07;;
12788;SDS011;6458;42.710;23.192;2023-07-13T05:39:41;7.40;;;6.70;;
12788;SDS011;6458;42.710;23.192;2023-07-13T05:42:08;8.20;;;7.47;;
12788;SDS011;6458;42.710;23.192;2023-07-13T05:44:35;7.72;;;7.13;;
12788;SDS011;6458;42.710;23.192;2023-07-13T05:47:01;8.02;;;7.38;;
12788;SDS011;6458;42.710;23.192;2023-07-13T05:49:28;7.35;;;6.82;;
12788;SDS011;6458;42.710;23.192;2023-07-13T05:51:55;8.00;;;7.25;;
12788;SDS011;6458;42.710;23.192;2023-07-13T05:54:22;8.38;;;7.57;;
12788;SDS011;6458;42.710;23.192;2023-07-13T05:56:50;8.10;;;7.38;;
12788;SDS011;6458;42.710;23.192;2023-07-13T05:59:17;8.32;;;7.70;;
12788;SDS011;6458;42.710;23.192;2023-07-13T06:01:43;8.65;;;7.65;;
12788;SDS011;6458;42.710;23.192;2023-07-13T06:04:10;8.85;;;8.10;;
12788;SDS011;6458;42.710;23.192;2023-07-13T06:06:37;9.38;;;8.65;;
12788;SDS011;6458;42.710;23.192;2023-07-13T06:09:03;10.05;;;8.95;;
12788;SDS011;6458;42.710;23.192;2023-07-13T06:11:30;13.18;;;9.65;;
12788;SDS011;6458;42.710;23.192;2023-07-13T06:13:58;9.57;;;8.68;;
12788;SDS011;6458;42.710;23.192;2023-07-13T06:16:25;9.15;;;8.45;;
12788;SDS011;6458;42.710;23.192;2023-07-13T06:18:51;9.17;;;8.27;;
12788;SDS011;6458;42.710;23.192;2023-07-13T06:21:20;9.98;;;8.57;;
12788;SDS011;6458;42.710;23.192;2023-07-13T06:23:48;9.80;;;9.00;;
12788;SDS011;6458;42.710;23.192;2023-07-13T06:26:14;9.30;;;8.10;;
12788;SDS011;6458;42.710;23.192;2023-07-13T06:28:41;9.67;;;8.80;;
12788;SDS011;6458;42.710;23.192;2023-07-13T06:31:10;12.17;;;8.83;;
12788;SDS011;6458;42.710;23.192;2023-07-13T06:33:37;11.93;;;8.93;;
12788;SDS011;6458;42.710;23.192;2023-07-13T06:36:05;10.67;;;9.20;;
12788;SDS011;6458;42.710;23.192;2023-07-13T06:38:32;8.93;;;8.27;;
12788;SDS011;6458;42.710;23.192;2023-07-13T06:40:59;9.13;;;8.43;;
12788;SDS011;6458;42.710;23.192;2023-07-13T06:43:26;8.88;;;8.20;;
12788;SDS011;6458;42.710;23.192;2023-07-13T06:45:54;9.38;;;8.57;;
12788;SDS011;6458;42.710;23.192;2023-07-13T06:48:23;9.32;;;8.50;;
12788;SDS011;6458;42.710;23.192;2023-07-13T06:50:50;9.38;;;8.48;;
12788;SDS011;6458;42.710;23.192;2023-07-13T06:53:18;9.38;;;8.48;;
12788;SDS011;6458;42.710;23.192;2023-07-13T06:55:45;11.10;;;9.43;;
12788;SDS011;6458;42.710;23.192;2023-07-13T06:58:12;9.77;;;8.60;;
12788;SDS011;6458;42.710;23.192;2023-07-13T07:00:39;12.32;;;9.07;;
12788;SDS011;6458;42.710;23.192;2023-07-13T07:03:06;12.88;;;8.65;;
12788;SDS011;6458;42.710;23.192;2023-07-13T07:05:34;10.45;;;9.35;;
12788;SDS011;6458;42.710;23.192;2023-07-13T07:08:01;12.43;;;9.57;;
12788;SDS011;6458;42.710;23.192;2023-07-13T07:10:28;10.27;;;9.20;;
12788;SDS011;6458;42.710;23.192;2023-07-13T07:12:55;9.93;;;9.05;;
12788;SDS011;6458;42.710;23.192;2023-07-13T07:15:22;10.57;;;9.43;;
12788;SDS011;6458;42.710;23.192;2023-07-13T07:17:48;10.23;;;9.23;;
12788;SDS011;6458;42.710;23.192;2023-07-13T07:20:15;12.48;;;9.52;;
12788;SDS011;6458;42.710;23.192;2023-07-13T07:22:43;12.43;;;9.48;;
12788;SDS011;6458;42.710;23.192;2023-07-13T07:25:09;9.82;;;8.75;;
12788;SDS011;6458;42.710;23.192;2023-07-13T07:27:36;10.68;;;9.15;;
12788;SDS011;6458;42.710;23.192;2023-07-13T07:30:03;10.18;;;9.13;;
12788;SDS011;6458;42.710;23.192;2023-07-13T07:32:30;10.65;;;9.65;;
12788;SDS011;6458;42.710;23.192;2023-07-13T07:34:57;10.77;;;9.68;;
12788;SDS011;6458;42.710;23.192;2023-07-13T07:37:23;12.35;;;8.82;;
12788;SDS011;6458;42.710;23.192;2023-07-13T07:39:51;11.05;;;8.63;;
12788;SDS011;6458;42.710;23.192;2023-07-13T07:42:18;12.43;;;8.65;;
12788;SDS011;6458;42.710;23.192;2023-07-13T07:44:45;9.93;;;9.00;;
12788;SDS011;6458;42.710;23.192;2023-07-13T07:47:11;14.02;;;8.68;;
12788;SDS011;6458;42.710;23.192;2023-07-13T07:49:38;12.10;;;9.13;;
12788;SDS011;6458;42.710;23.192;2023-07-13T07:52:05;9.40;;;8.32;;
12788;SDS011;6458;42.710;23.192;2023-07-13T07:54:32;9.07;;;8.25;;
12788;SDS011;6458;42.710;23.192;2023-07-13T07:57:00;8.68;;;7.95;;
12788;SDS011;6458;42.710;23.192;2023-07-13T07:59:27;8.80;;;8.00;;
12788;SDS011;6458;42.710;23.192;2023-07-13T08:01:53;8.30;;;7.50;;
12788;SDS011;6458;42.710;23.192;2023-07-13T08:04:20;9.57;;;7.05;;
12788;SDS011;6458;42.710;23.192;2023-07-13T08:06:46;9.07;;;8.20;;
12788;SDS011;6458;42.710;23.192;2023-07-13T08:09:13;7.85;;;7.07;;
12788;SDS011;6458;42.710;23.192;2023-07-13T08:11:40;10.82;;;6.97;;
12788;SDS011;6458;42.710;23.192;2023-07-13T08:14:08;7.70;;;6.47;;
12788;SDS011;6458;42.710;23.192;2023-07-13T08:16:35;13.05;;;7.32;;
12788;SDS011;6458;42.710;23.192;2023-07-13T08:19:02;8.23;;;7.38;;
12788;SDS011;6458;42.710;23.192;2023-07-13T08:21:29;6.60;;;5.05;;
12788;SDS011;6458;42.710;23.192;2023-07-13T08:23:55;7.75;;;7.07;;
12788;SDS011;6458;42.710;23.192;2023-07-13T08:26:22;9.30;;;7.93;;
12788;SDS011;6458;42.710;23.192;2023-07-13T08:28:49;10.07;;;7.90;;
12788;SDS011;6458;42.710;23.192;2023-07-13T08:31:17;8.80;;;7.70;;
12788;SDS011;6458;42.710;23.192;2023-07-13T08:33:43;9.02;;;5.28;;
12788;SDS011;6458;42.710;23.192;2023-07-13T08:36:10;9.23;;;5.97;;
12788;SDS011;6458;42.710;23.192;2023-07-13T08:38:37;6.18;;;5.05;;
12788;SDS011;6458;42.710;23.192;2023-07-13T08:41:09;8.15;;;5.82;;
12788;SDS011;6458;42.710;23.192;2023-07-13T08:43:37;5.50;;;5.10;;
12788;SDS011;6458;42.710;23.192;2023-07-13T08:46:05;5.65;;;5.25;;
12788;SDS011;6458;42.710;23.192;2023-07-13T08:48:36;5.68;;;5.15;;
12788;SDS011;6458;42.710;23.192;2023-07-13T08:51:09;8.48;;;5.40;;
12788;SDS011;6458;42.710;23.192;2023-07-13T08:53:46;6.10;;;5.50;;
12788;SDS011;6458;42.710;23.192;2023-07-13T08:56:16;5.70;;;5.30;;
12788;SDS011;6458;42.710;23.192;2023-07-13T08:58:43;6.07;;;5.50;;
12788;SDS011;6458;42.710;23.192;2023-07-13T09:01:12;5.95;;;5.45;;
12788;SDS011;6458;42.710;23.192;2023-07-13T09:03:46;6.03;;;5.20;;
12788;SDS011;6458;42.710;23.192;2023-07-13T09:06:13;13.02;;;5.60;;
12788;SDS011;6458;42.710;23.192;2023-07-13T09:08:48;5.47;;;5.07;;
12788;SDS011;6458;42.710;23.192;2023-07-13T09:11:23;5.22;;;4.93;;
12788;SDS011;6458;42.710;23.192;2023-07-13T09:13:56;6.00;;;5.50;;
12788;SDS011;6458;42.710;23.192;2023-07-13T09:16:23;7.32;;;5.07;;
12788;SDS011;6458;42.710;23.192;2023-07-13T09:18:52;6.32;;;5.47;;
12788;SDS011;6458;42.710;23.192;2023-07-13T09:21:21;5.68;;;5.20;;
12788;SDS011;6458;42.710;23.192;2023-07-13T09:23:50;5.35;;;4.90;;
12788;SDS011;6458;42.710;23.192;2023-07-13T09:26:21;6.60;;;5.18;;
12788;SDS011;6458;42.710;23.192;2023-07-13T09:28:48;5.82;;;5.13;;
12788;SDS011;6458;42.710;23.192;2023-07-13T09:31:19;5.85;;;5.30;;
12788;SDS011;6458;42.710;23.192;2023-07-13T09:33:47;7.45;;;5.40;;
12788;SDS011;6458;42.710;23.192;2023-07-13T09:36:19;6.18;;;5.25;;
12788;SDS011;6458;42.710;23.192;2023-07-13T09:38:48;6.95;;;5.47;;
12788;SDS011;6458;42.710;23.192;2023-07-13T09:41:18;8.98;;;5.20;;
12788;SDS011;6458;42.710;23.192;2023-07-13T09:44:02;6.13;;;5.40;;
12788;SDS011;6458;42.710;23.192;2023-07-13T09:46:34;7.38;;;5.28;;
12788;SDS011;6458;42.710;23.192;2023-07-13T09:49:00;5.50;;;4.93;;
12788;SDS011;6458;42.710;23.192;2023-07-13T09:51:28;4.93;;;4.63;;
12788;SDS011;6458;42.710;23.192;2023-07-13T09:53:55;5.20;;;4.78;;
12788;SDS011;6458;42.710;23.192;2023-07-13T09:56:22;6.22;;;4.75;;
12788;SDS011;6458;42.710;23.192;2023-07-13T09:58:49;5.35;;;4.78;;
12788;SDS011;6458;42.710;23.192;2023-07-13T10:01:15;5.18;;;4.43;;
12788;SDS011;6458;42.710;23.192;2023-07-13T10:03:57;7.40;;;5.03;;
12788;SDS011;6458;42.710;23.192;2023-07-13T10:06:23;5.78;;;5.28;;
12788;SDS011;6458;42.710;23.192;2023-07-13T10:08:54;5.60;;;4.72;;
12788;SDS011;6458;42.710;23.192;2023-07-13T10:11:23;5.00;;;4.70;;
12788;SDS011;6458;42.710;23.192;2023-07-13T10:13:51;5.60;;;5.10;;
12788;SDS011;6458;42.710;23.192;2023-07-13T10:16:20;5.80;;;5.35;;
12788;SDS011;6458;42.710;23.192;2023-07-13T10:18:48;5.55;;;5.05;;
12788;SDS011;6458;42.710;23.192;2023-07-13T10:21:17;6.70;;;5.00;;
12788;SDS011;6458;42.710;23.192;2023-07-13T10:23:44;5.15;;;4.60;;
12788;SDS011;6458;42.710;23.192;2023-07-13T10:26:15;6.10;;;5.20;;
12788;SDS011;6458;42.710;23.192;2023-07-13T10:28:43;4.90;;;4.60;;
12788;SDS011;6458;42.710;23.192;2023-07-13T10:31:13;7.63;;;5.30;;
12788;SDS011;6458;42.710;23.192;2023-07-13T10:33:40;5.72;;;5.22;;
12788;SDS011;6458;42.710;23.192;2023-07-13T10:36:12;5.25;;;4.80;;
12788;SDS011;6458;42.710;23.192;2023-07-13T10:38:39;4.88;;;4.38;;
12788;SDS011;6458;42.710;23.192;2023-07-13T10:41:06;5.20;;;4.80;;
12788;SDS011;6458;42.710;23.192;2023-07-13T10:43:37;7.25;;;4.97;;
12788;SDS011;6458;42.710;23.192;2023-07-13T10:46:06;5.35;;;5.00;;
12788;SDS011;6458;42.710;23.192;2023-07-13T10:48:34;5.50;;;5.00;;
12788;SDS011;6458;42.710;23.192;2023-07-13T10:51:02;5.05;;;4.65;;
12788;SDS011;6458;42.710;23.192;2023-07-13T10:53:31;6.30;;;5.38;;
12788;SDS011;6458;42.710;23.192;2023-07-13T10:55:59;6.05;;;5.03;;
12788;SDS011;6458;42.710;23.192;2023-07-13T10:58:32;6.07;;;4.97;;
12788;SDS011;6458;42.710;23.192;2023-07-13T11:01:01;5.70;;;5.13;;
12788;SDS011;6458;42.710;23.192;2023-07-13T11:03:29;7.30;;;5.20;;
12788;SDS011;6458;42.710;23.192;2023-07-13T11:06:04;5.57;;;5.05;;
12788;SDS011;6458;42.710;23.192;2023-07-13T11:08:34;6.18;;;4.85;;
12788;SDS011;6458;42.710;23.192;2023-07-13T11:11:04;8.90;;;5.35;;
12788;SDS011;6458;42.710;23.192;2023-07-13T11:13:57;5.47;;;4.93;;
12788;SDS011;6458;42.710;23.192;2023-07-13T11:16:36;5.07;;;4.70;;
12788;SDS011;6458;42.710;23.192;2023-07-13T11:19:24;5.35;;;4.82;;
12788;SDS011;6458;42.710;23.192;2023-07-13T11:22:02;5.40;;;4.90;;
12788;SDS011;6458;42.710;23.192;2023-07-13T11:24:29;5.90;;;5.05;;
12788;SDS011;6458;42.710;23.192;2023-07-13T11:27:21;6.55;;;4.90;;
12788;SDS011;6458;42.710;23.192;2023-07-13T11:29:48;6.65;;;5.30;;
12788;SDS011;6458;42.710;23.192;2023-07-13T11:32:23;7.05;;;5.18;;
12788;SDS011;6458;42.710;23.192;2023-07-13T11:34:51;5.00;;;4.70;;
12788;SDS011;6458;42.710;23.192;2023-07-13T11:37:19;7.22;;;4.78;;
12788;SDS011;6458;42.710;23.192;2023-07-13T11:39:46;5.80;;;4.95;;
12788;SDS011;6458;42.710;23.192;2023-07-13T11:42:15;7.63;;;5.03;;
12788;SDS011;6458;42.710;23.192;2023-07-13T11:44:43;5.22;;;4.75;;
12788;SDS011;6458;42.710;23.192;2023-07-13T11:47:10;6.00;;;4.90;;
12788;SDS011;6458;42.710;23.192;2023-07-13T11:49:40;6.88;;;5.18;;
12788;SDS011;6458;42.710;23.192;2023-07-13T11:52:10;8.73;;;4.93;;
12788;SDS011;6458;42.710;23.192;2023-07-13T11:54:43;7.57;;;5.20;;
12788;SDS011;6458;42.710;23.192;2023-07-13T11:57:18;7.05;;;4.93;;
12788;SDS011;6458;42.710;23.192;2023-07-13T11:59:48;5.45;;;4.95;;
12788;SDS011;6458;42.710;23.192;2023-07-13T12:02:17;5.40;;;5.00;;
12788;SDS011;6458;42.710;23.192;2023-07-13T12:04:45;5.32;;;4.70;;
12788;SDS011;6458;42.710;23.192;2023-07-13T12:07:14;5.05;;;4.70;;
12788;SDS011;6458;42.710;23.192;2023-07-13T12:09:42;8.00;;;5.35;;
12788;SDS011;6458;42.710;23.192;2023-07-13T12:12:11;6.30;;;5.10;;
12788;SDS011;6458;42.710;23.192;2023-07-13T12:14:39;7.40;;;5.13;;
12788;SDS011;6458;42.710;23.192;2023-07-13T12:17:08;6.45;;;4.90;;
12788;SDS011;6458;42.710;23.192;2023-07-13T12:19:35;5.20;;;4.68;;
12788;SDS011;6458;42.710;23.192;2023-07-13T12:22:04;8.23;;;4.93;;
12788;SDS011;6458;42.710;23.192;2023-07-13T12:24:30;4.85;;;4.47;;
12788;SDS011;6458;42.710;23.192;2023-07-13T12:26:59;5.93;;;5.38;;
12788;SDS011;6458;42.710;23.192;2023-07-13T12:29:26;6.78;;;5.47;;
12788;SDS011;6458;42.710;23.192;2023-07-13T12:31:53;6.82;;;5.15;;
12788;SDS011;6458;42.710;23.192;2023-07-13T12:34:21;5.53;;;5.00;;
12788;SDS011;6458;42.710;23.192;2023-07-13T12:36:49;6.05;;;5.47;;
12788;SDS011;6458;42.710;23.192;2023-07-13T12:39:19;5.82;;;5.03;;
12788;SDS011;6458;42.710;23.192;2023-07-13T12:41:46;8.60;;;4.97;;
12788;SDS011;6458;42.710;23.192;2023-07-13T12:44:13;7.40;;;5.30;;
12788;SDS011;6458;42.710;23.192;2023-07-13T12:46:50;7.18;;;5.13;;
12788;SDS011;6458;42.710;23.192;2023-07-13T12:52:27;7.32;;;5.13;;
12788;SDS011;6458;42.710;23.192;2023-07-13T12:54:57;6.03;;;5.45;;
12788;SDS011;6458;42.710;23.192;2023-07-13T12:57:24;9.43;;;5.28;;
12788;SDS011;6458;42.710;23.192;2023-07-13T12:59:52;9.13;;;5.40;;
12788;SDS011;6458;42.710;23.192;2023-07-13T13:02:25;5.63;;;5.13;;
12788;SDS011;6458;42.710;23.192;2023-07-13T13:04:53;6.65;;;4.95;;
12788;SDS011;6458;42.710;23.192;2023-07-13T13:07:21;6.28;;;5.68;;
12788;SDS011;6458;42.710;23.192;2023-07-13T13:09:47;6.35;;;5.25;;
12788;SDS011;6458;42.710;23.192;2023-07-13T13:12:15;6.15;;;5.00;;
12788;SDS011;6458;42.710;23.192;2023-07-13T13:14:42;7.07;;;5.75;;
12788;SDS011;6458;42.710;23.192;2023-07-13T13:17:14;6.13;;;5.20;;
12788;SDS011;6458;42.710;23.192;2023-07-13T13:19:44;7.03;;;5.18;;
12788;SDS011;6458;42.710;23.192;2023-07-13T13:22:11;5.90;;;5.32;;
12788;SDS011;6458;42.710;23.192;2023-07-13T13:24:38;9.98;;;5.50;;
12788;SDS011;6458;42.710;23.192;2023-07-13T13:27:08;6.50;;;5.40;;
12788;SDS011;6458;42.710;23.192;2023-07-13T13:29:41;6.20;;;5.30;;
12788;SDS011;6458;42.710;23.192;2023-07-13T13:32:09;5.95;;;5.10;;
12788;SDS011;6458;42.710;23.192;2023-07-13T13:34:36;7.00;;;5.05;;
12788;SDS011;6458;42.710;23.192;2023-07-13T13:37:03;6.60;;;5.10;;
12788;SDS011;6458;42.710;23.192;2023-07-13T13:39:32;5.55;;;5.05;;
12788;SDS011;6458;42.710;23.192;2023-07-13T13:41:59;6.57;;;5.07;;
12788;SDS011;6458;42.710;23.192;2023-07-13T13:44:25;6.85;;;5.60;;
12788;SDS011;6458;42.710;23.192;2023-07-13T13:46:54;6.40;;;5.28;;
12788;SDS011;6458;42.710;23.192;2023-07-13T13:49:22;6.90;;;5.10;;
12788;SDS011;6458;42.710;23.192;2023-07-13T13:51:50;5.65;;;5.15;;
12788;SDS011;6458;42.710;23.192;2023-07-13T13:54:17;9.48;;;5.28;;
12788;SDS011;6458;42.710;23.192;2023-07-13T13:56:47;7.28;;;4.95;;
12788;SDS011;6458;42.710;23.192;2023-07-13T13:59:14;8.05;;;5.40;;
12788;SDS011;6458;42.710;23.192;2023-07-13T14:01:41;5.35;;;4.97;;
12788;SDS011;6458;42.710;23.192;2023-07-13T14:04:10;6.38;;;5.30;;
12788;SDS011;6458;42.710;23.192;2023-07-13T14:06:40;6.00;;;5.40;;
12788;SDS011;6458;42.710;23.192;2023-07-13T14:09:08;6.47;;;5.10;;
12788;SDS011;6458;42.710;23.192;2023-07-13T14:11:35;6.05;;;4.85;;
12788;SDS011;6458;42.710;23.192;2023-07-13T14:14:01;5.85;;;5.18;;
12788;SDS011;6458;42.710;23.192;2023-07-13T14:16:30;10.43;;;5.20;;
12788;SDS011;6458;42.710;23.192;2023-07-13T14:18:58;7.03;;;5.45;;
12788;SDS011;6458;42.710;23.192;2023-07-13T14:21:27;6.05;;;5.20;;
12788;SDS011;6458;42.710;23.192;2023-07-13T14:23:54;5.53;;;5.03;;
12788;SDS011;6458;42.710;23.192;2023-07-13T14:26:21;8.05;;;5.43;;
12788;SDS011;6458;42.710;23.192;2023-07-13T14:28:49;6.35;;;5.85;;
12788;SDS011;6458;42.710;23.192;2023-07-13T14:31:17;7.82;;;5.20;;
12788;SDS011;6458;42.710;23.192;2023-07-13T14:33:44;6.43;;;5.50;;
12788;SDS011;6458;42.710;23.192;2023-07-13T14:36:16;7.72;;;5.75;;
12788;SDS011;6458;42.710;23.192;2023-07-13T14:38:47;6.70;;;6.03;;
12788;SDS011;6458;42.710;23.192;2023-07-13T14:41:14;8.23;;;5.65;;
12788;SDS011;6458;42.710;23.192;2023-07-13T14:43:40;8.60;;;5.15;;
12788;SDS011;6458;42.710;23.192;2023-07-13T14:46:07;7.05;;;5.18;;
12788;SDS011;6458;42.710;23.192;2023-07-13T14:48:42;7.03;;;5.40;;
12788;SDS011;6458;42.710;23.192;2023-07-13T14:51:09;5.35;;;4.95;;
12788;SDS011;6458;42.710;23.192;2023-07-13T14:53:36;8.48;;;5.43;;
12788;SDS011;6458;42.710;23.192;2023-07-13T14:56:09;5.97;;;5.45;;